Kirby, WY (82430)

11:14 AM MST on February 12, 2016 (GMT -0700)
APRSWXNET | | Change Station
CLOSE
Current Station
Personal Weather Station
Location: Kirby, WY
Elevation: 4350 ft
Nearby Weather Stations

Elev 4350 ft 43.80 °N, 108.19 °W | Updated 22 minutes ago

Partly Cloudy
Partly Cloudy
44 °F
Feels Like 44 °F
N
0
Wind Variable Wind from North
Gusts 2.0 mph

Today
High -- | Low -- °F
--% Chance of Precip.
Yesterday
High -- | Low -- °F
Precip. -- in
Pressure 30.30 in
Visibility 10.0 miles
Clouds Clear
Windchill 44 °F
Dew Point 30 °F
Humidity 57%
Rainfall in
Snow Depth Not available.
7:16 AM 5:38 PM
Waxing Crescent, 22% visible
METAR KWRL 121753Z AUTO 33003KT 10SM CLR 06/M01 A3025 RMK AO2 SLP260 T00561011 10056 21011 58004
Pressure 30.30 in
Visibility 10.0 miles
Clouds Clear
Windchill 44 °F
Dew Point 30 °F
Humidity 57%
Rainfall in
Snow Depth Not available.
7:16 AM 5:38 PM
Waxing Crescent, 22% visible
METAR KWRL 121753Z AUTO 33003KT 10SM CLR 06/M01 A3025 RMK AO2 SLP260 T00561011 10056 21011 58004

10-Day Weather Forecast

Almanac

Astronomy

Feb. 12, 2016 Rise Set
Actual Time
Civil Twilight
Nautical Twilight
Astronomical Twilight
Moon
Length of Visible Light
Length of Day
Tomorrow will be .
, % of the Moon is Illuminated

Today's Extremes

State Highs State Lows

Community

WunderPhotos

Upload Photos

1,892,359 photos uploaded!

WunderBlog® & News

Nearby

Air Quality

  Air Quality AQ Index Pollutant
Not available.

Snow Depth

Station Depth Elevation

Earthquake Activity

City Distance Mag. Time & Date
Minimum magnitude displayed is 2.5.

Coastal Water Temperatures

Place Temperature

Stations

Nearby Weather Stations

Station Location Temp. Windchill Dew Point Humidity Wind Precip. Elev Updated Type
                   

Watches & Warnings

There are currently no watches in effect.